sensor_id;sensor_type;location;lat;lon;timestamp;temperature;humidity
16313;DHT22;8265;52.622;13.296;2024-02-23T00:00:14;9.10;93.90
16313;DHT22;8265;52.622;13.296;2024-02-23T00:05:34;9.00;94.00
16313;DHT22;8265;52.622;13.296;2024-02-23T00:10:56;9.10;93.60
16313;DHT22;8265;52.622;13.296;2024-02-23T00:16:17;9.20;93.10
16313;DHT22;8265;52.622;13.296;2024-02-23T00:21:38;9.40;92.50
16313;DHT22;8265;52.622;13.296;2024-02-23T00:26:59;9.40;92.20
16313;DHT22;8265;52.622;13.296;2024-02-23T00:32:19;9.40;91.50
16313;DHT22;8265;52.622;13.296;2024-02-23T00:37:40;9.40;91.20
16313;DHT22;8265;52.622;13.296;2024-02-23T00:43:01;9.40;90.90
16313;DHT22;8265;52.622;13.296;2024-02-23T00:48:22;9.40;90.10
16313;DHT22;8265;52.622;13.296;2024-02-23T00:53:43;9.40;89.70
16313;DHT22;8265;52.622;13.296;2024-02-23T00:59:04;9.30;90.00
16313;DHT22;8265;52.622;13.296;2024-02-23T01:04:25;9.20;90.00
16313;DHT22;8265;52.622;13.296;2024-02-23T01:09:46;9.30;89.50
16313;DHT22;8265;52.622;13.296;2024-02-23T01:15:08;9.40;88.60
16313;DHT22;8265;52.622;13.296;2024-02-23T01:20:28;9.50;87.50
16313;DHT22;8265;52.622;13.296;2024-02-23T01:25:49;9.60;87.10
16313;DHT22;8265;52.622;13.296;2024-02-23T01:31:11;9.60;87.00
16313;DHT22;8265;52.622;13.296;2024-02-23T01:36:31;9.70;85.90
16313;DHT22;8265;52.622;13.296;2024-02-23T01:41:52;9.70;85.40
16313;DHT22;8265;52.622;13.296;2024-02-23T01:47:13;9.90;84.00
16313;DHT22;8265;52.622;13.296;2024-02-23T01:52:35;9.80;83.60
16313;DHT22;8265;52.622;13.296;2024-02-23T01:57:56;10.00;81.10
16313;DHT22;8265;52.622;13.296;2024-02-23T02:03:16;10.30;78.00
16313;DHT22;8265;52.622;13.296;2024-02-23T02:08:37;10.30;78.20
16313;DHT22;8265;52.622;13.296;2024-02-23T02:13:58;10.30;76.40
16313;DHT22;8265;52.622;13.296;2024-02-23T02:19:19;10.30;75.70
16313;DHT22;8265;52.622;13.296;2024-02-23T02:24:40;10.10;75.00
16313;DHT22;8265;52.622;13.296;2024-02-23T02:30:01;9.90;74.50
16313;DHT22;8265;52.622;13.296;2024-02-23T02:35:22;9.70;75.20
16313;DHT22;8265;52.622;13.296;2024-02-23T02:40:43;9.70;74.70
16313;DHT22;8265;52.622;13.296;2024-02-23T02:46:04;9.70;72.60
16313;DHT22;8265;52.622;13.296;2024-02-23T02:51:25;9.50;69.90
16313;DHT22;8265;52.622;13.296;2024-02-23T02:56:49;9.40;69.10
16313;DHT22;8265;52.622;13.296;2024-02-23T03:02:07;9.20;67.50
16313;DHT22;8265;52.622;13.296;2024-02-23T03:07:28;9.00;67.10
16313;DHT22;8265;52.622;13.296;2024-02-23T03:12:49;8.90;66.40
16313;DHT22;8265;52.622;13.296;2024-02-23T03:18:10;8.80;65.10
16313;DHT22;8265;52.622;13.296;2024-02-23T03:23:31;8.70;65.40
16313;DHT22;8265;52.622;13.296;2024-02-23T03:28:52;8.60;66.40
16313;DHT22;8265;52.622;13.296;2024-02-23T03:34:13;8.40;66.50
16313;DHT22;8265;52.622;13.296;2024-02-23T03:39:34;8.30;65.80
16313;DHT22;8265;52.622;13.296;2024-02-23T03:44:55;8.30;66.10
16313;DHT22;8265;52.622;13.296;2024-02-23T03:50:16;8.40;65.40
16313;DHT22;8265;52.622;13.296;2024-02-23T03:55:37;8.40;64.80
16313;DHT22;8265;52.622;13.296;2024-02-23T04:00:58;8.40;64.50
16313;DHT22;8265;52.622;13.296;2024-02-23T04:06:19;8.40;64.40
16313;DHT22;8265;52.622;13.296;2024-02-23T04:11:40;8.40;64.40
16313;DHT22;8265;52.622;13.296;2024-02-23T04:17:04;8.40;63.50
16313;DHT22;8265;52.622;13.296;2024-02-23T04:22:22;8.40;63.70
16313;DHT22;8265;52.622;13.296;2024-02-23T04:27:43;8.30;63.60
16313;DHT22;8265;52.622;13.296;2024-02-23T04:33:04;8.20;63.90
16313;DHT22;8265;52.622;13.296;2024-02-23T04:38:25;8.10;63.70
16313;DHT22;8265;52.622;13.296;2024-02-23T04:43:46;8.20;62.90
16313;DHT22;8265;52.622;13.296;2024-02-23T04:49:07;8.20;62.70
16313;DHT22;8265;52.622;13.296;2024-02-23T04:54:28;8.00;61.90
16313;DHT22;8265;52.622;13.296;2024-02-23T04:59:49;8.00;59.60
16313;DHT22;8265;52.622;13.296;2024-02-23T05:05:10;8.00;58.20
16313;DHT22;8265;52.622;13.296;2024-02-23T05:10:31;7.90;59.10
16313;DHT22;8265;52.622;13.296;2024-02-23T05:15:55;7.80;59.40
16313;DHT22;8265;52.622;13.296;2024-02-23T05:21:16;7.50;59.80
16313;DHT22;8265;52.622;13.296;2024-02-23T05:26:34;7.40;60.70
16313;DHT22;8265;52.622;13.296;2024-02-23T05:31:55;7.10;61.50
16313;DHT22;8265;52.622;13.296;2024-02-23T05:37:16;7.00;62.10
16313;DHT22;8265;52.622;13.296;2024-02-23T05:42:37;6.90;62.90
16313;DHT22;8265;52.622;13.296;2024-02-23T05:47:58;6.70;63.70
16313;DHT22;8265;52.622;13.296;2024-02-23T05:53:19;6.50;65.20
16313;DHT22;8265;52.622;13.296;2024-02-23T05:58:40;6.30;65.60
16313;DHT22;8265;52.622;13.296;2024-02-23T06:04:01;6.30;65.80
16313;DHT22;8265;52.622;13.296;2024-02-23T06:09:22;6.40;65.70
16313;DHT22;8265;52.622;13.296;2024-02-23T06:14:43;6.30;66.20
16313;DHT22;8265;52.622;13.296;2024-02-23T06:20:04;6.30;66.20
16313;DHT22;8265;52.622;13.296;2024-02-23T06:25:25;6.30;66.30
16313;DHT22;8265;52.622;13.296;2024-02-23T06:30:46;6.20;67.30
16313;DHT22;8265;52.622;13.296;2024-02-23T06:36:07;6.00;67.80
16313;DHT22;8265;52.622;13.296;2024-02-23T06:41:28;6.00;68.90
16313;DHT22;8265;52.622;13.296;2024-02-23T06:46:49;6.00;67.30
16313;DHT22;8265;52.622;13.296;2024-02-23T06:52:10;6.10;67.60
16313;DHT22;8265;52.622;13.296;2024-02-23T06:57:31;6.20;67.00
16313;DHT22;8265;52.622;13.296;2024-02-23T07:02:52;6.20;67.60
16313;DHT22;8265;52.622;13.296;2024-02-23T07:08:13;6.40;67.30
16313;DHT22;8265;52.622;13.296;2024-02-23T07:13:34;6.60;66.90
16313;DHT22;8265;52.622;13.296;2024-02-23T07:18:55;6.70;65.40
16313;DHT22;8265;52.622;13.296;2024-02-23T07:24:16;6.70;65.50
16313;DHT22;8265;52.622;13.296;2024-02-23T07:29:37;6.70;65.30
16313;DHT22;8265;52.622;13.296;2024-02-23T07:34:58;6.70;65.20
16313;DHT22;8265;52.622;13.296;2024-02-23T07:40:19;6.70;64.00
16313;DHT22;8265;52.622;13.296;2024-02-23T07:45:40;6.70;64.50
16313;DHT22;8265;52.622;13.296;2024-02-23T07:51:01;6.80;64.00
16313;DHT22;8265;52.622;13.296;2024-02-23T07:56:22;6.70;65.00
16313;DHT22;8265;52.622;13.296;2024-02-23T08:01:43;6.80;63.80
16313;DHT22;8265;52.622;13.296;2024-02-23T08:07:04;6.90;64.20
16313;DHT22;8265;52.622;13.296;2024-02-23T08:12:25;7.00;63.30
16313;DHT22;8265;52.622;13.296;2024-02-23T08:17:46;7.20;62.30
16313;DHT22;8265;52.622;13.296;2024-02-23T08:23:07;7.50;62.50
16313;DHT22;8265;52.622;13.296;2024-02-23T08:28:28;7.40;62.40
16313;DHT22;8265;52.622;13.296;2024-02-23T08:33:49;7.70;61.70
16313;DHT22;8265;52.622;13.296;2024-02-23T08:39:10;7.80;61.20
16313;DHT22;8265;52.622;13.296;2024-02-23T08:44:31;7.60;62.30
16313;DHT22;8265;52.622;13.296;2024-02-23T08:49:52;7.60;63.00
16313;DHT22;8265;52.622;13.296;2024-02-23T08:55:13;7.70;62.80
16313;DHT22;8265;52.622;13.296;2024-02-23T09:00:34;7.70;62.70
16313;DHT22;8265;52.622;13.296;2024-02-23T09:05:55;7.80;61.60
16313;DHT22;8265;52.622;13.296;2024-02-23T09:11:16;8.00;61.10
16313;DHT22;8265;52.622;13.296;2024-02-23T09:16:37;8.00;60.40
16313;DHT22;8265;52.622;13.296;2024-02-23T09:21:58;8.20;60.10
16313;DHT22;8265;52.622;13.296;2024-02-23T09:27:22;7.80;60.00
16313;DHT22;8265;52.622;13.296;2024-02-23T09:32:40;8.00;59.00
16313;DHT22;8265;52.622;13.296;2024-02-23T09:38:01;8.20;58.90
16313;DHT22;8265;52.622;13.296;2024-02-23T09:43:22;8.20;56.90
16313;DHT22;8265;52.622;13.296;2024-02-23T09:48:44;8.10;56.00
16313;DHT22;8265;52.622;13.296;2024-02-23T09:54:04;8.30;56.30
16313;DHT22;8265;52.622;13.296;2024-02-23T09:59:25;8.10;55.80
16313;DHT22;8265;52.622;13.296;2024-02-23T10:04:46;8.00;55.60
16313;DHT22;8265;52.622;13.296;2024-02-23T10:10:07;8.40;55.70
16313;DHT22;8265;52.622;13.296;2024-02-23T10:15:31;8.30;55.90
16313;DHT22;8265;52.622;13.296;2024-02-23T10:20:49;8.10;55.80
16313;DHT22;8265;52.622;13.296;2024-02-23T10:26:10;8.40;55.50
16313;DHT22;8265;52.622;13.296;2024-02-23T10:31:32;8.50;55.60
16313;DHT22;8265;52.622;13.296;2024-02-23T10:36:52;8.40;54.40
16313;DHT22;8265;52.622;13.296;2024-02-23T10:42:13;8.60;55.70
16313;DHT22;8265;52.622;13.296;2024-02-23T10:47:34;8.60;55.40
16313;DHT22;8265;52.622;13.296;2024-02-23T10:52:55;8.80;54.80
16313;DHT22;8265;52.622;13.296;2024-02-23T10:58:16;8.70;54.20
16313;DHT22;8265;52.622;13.296;2024-02-23T11:03:37;8.50;54.60
16313;DHT22;8265;52.622;13.296;2024-02-23T11:09:04;8.60;53.50
16313;DHT22;8265;52.622;13.296;2024-02-23T11:14:28;8.60;54.70
16313;DHT22;8265;52.622;13.296;2024-02-23T11:19:40;8.80;55.30
16313;DHT22;8265;52.622;13.296;2024-02-23T11:25:04;8.80;54.20
16313;DHT22;8265;52.622;13.296;2024-02-23T11:30:22;9.00;54.70
16313;DHT22;8265;52.622;13.296;2024-02-23T11:35:46;9.00;54.70
16313;DHT22;8265;52.622;13.296;2024-02-23T11:41:04;8.90;54.90
16313;DHT22;8265;52.622;13.296;2024-02-23T11:46:25;8.70;55.80
16313;DHT22;8265;52.622;13.296;2024-02-23T11:51:46;8.90;54.10
16313;DHT22;8265;52.622;13.296;2024-02-23T11:57:07;9.20;54.10
16313;DHT22;8265;52.622;13.296;2024-02-23T12:02:28;9.00;53.00
16313;DHT22;8265;52.622;13.296;2024-02-23T12:07:49;9.00;53.80
16313;DHT22;8265;52.622;13.296;2024-02-23T12:13:10;9.00;54.00
16313;DHT22;8265;52.622;13.296;2024-02-23T12:18:34;8.90;54.80
16313;DHT22;8265;52.622;13.296;2024-02-23T12:23:52;8.90;55.30
16313;DHT22;8265;52.622;13.296;2024-02-23T12:29:13;9.10;54.10
16313;DHT22;8265;52.622;13.296;2024-02-23T12:34:34;9.20;53.90
16313;DHT22;8265;52.622;13.296;2024-02-23T12:39:55;8.80;53.50
16313;DHT22;8265;52.622;13.296;2024-02-23T12:45:16;9.10;54.40
16313;DHT22;8265;52.622;13.296;2024-02-23T12:50:37;9.10;54.00
16313;DHT22;8265;52.622;13.296;2024-02-23T12:55:58;9.20;53.00
16313;DHT22;8265;52.622;13.296;2024-02-23T13:01:19;9.10;53.50
16313;DHT22;8265;52.622;13.296;2024-02-23T13:06:40;8.80;54.30
16313;DHT22;8265;52.622;13.296;2024-02-23T13:12:01;8.80;54.00
16313;DHT22;8265;52.622;13.296;2024-02-23T13:17:22;8.90;54.60
16313;DHT22;8265;52.622;13.296;2024-02-23T13:22:43;9.00;54.40
16313;DHT22;8265;52.622;13.296;2024-02-23T13:28:04;8.90;55.20
16313;DHT22;8265;52.622;13.296;2024-02-23T13:33:25;9.10;54.70
16313;DHT22;8265;52.622;13.296;2024-02-23T13:38:46;8.80;54.60
16313;DHT22;8265;52.622;13.296;2024-02-23T13:44:07;8.80;54.70
16313;DHT22;8265;52.622;13.296;2024-02-23T13:49:28;8.80;55.50
16313;DHT22;8265;52.622;13.296;2024-02-23T13:54:49;8.80;56.60
16313;DHT22;8265;52.622;13.296;2024-02-23T14:00:10;8.80;56.80
16313;DHT22;8265;52.622;13.296;2024-02-23T14:05:31;8.80;57.10
16313;DHT22;8265;52.622;13.296;2024-02-23T14:10:52;8.60;56.50
16313;DHT22;8265;52.622;13.296;2024-02-23T14:16:13;8.60;57.00
16313;DHT22;8265;52.622;13.296;2024-02-23T14:21:34;8.60;56.10
16313;DHT22;8265;52.622;13.296;2024-02-23T14:26:55;8.60;56.90
16313;DHT22;8265;52.622;13.296;2024-02-23T14:32:16;8.50;55.80
16313;DHT22;8265;52.622;13.296;2024-02-23T14:37:37;8.40;56.20
16313;DHT22;8265;52.622;13.296;2024-02-23T14:42:57;8.30;56.20
16313;DHT22;8265;52.622;13.296;2024-02-23T14:48:19;8.40;55.90
16313;DHT22;8265;52.622;13.296;2024-02-23T14:53:40;8.40;56.70
16313;DHT22;8265;52.622;13.296;2024-02-23T14:59:00;8.20;56.60
16313;DHT22;8265;52.622;13.296;2024-02-23T15:04:21;8.10;56.30
16313;DHT22;8265;52.622;13.296;2024-02-23T15:09:42;8.00;55.90
16313;DHT22;8265;52.622;13.296;2024-02-23T15:15:04;8.10;56.50
16313;DHT22;8265;52.622;13.296;2024-02-23T15:20:25;8.00;57.50
16313;DHT22;8265;52.622;13.296;2024-02-23T15:25:46;7.90;57.10
16313;DHT22;8265;52.622;13.296;2024-02-23T15:31:07;7.80;57.70
16313;DHT22;8265;52.622;13.296;2024-02-23T15:36:28;7.60;58.10
16313;DHT22;8265;52.622;13.296;2024-02-23T15:41:49;7.60;58.20
16313;DHT22;8265;52.622;13.296;2024-02-23T15:47:10;7.60;58.80
16313;DHT22;8265;52.622;13.296;2024-02-23T15:52:31;7.50;59.00
16313;DHT22;8265;52.622;13.296;2024-02-23T15:57:52;7.50;59.30
16313;DHT22;8265;52.622;13.296;2024-02-23T16:03:13;7.40;59.10
16313;DHT22;8265;52.622;13.296;2024-02-23T16:08:40;7.30;59.50
16313;DHT22;8265;52.622;13.296;2024-02-23T16:13:55;7.20;60.10
16313;DHT22;8265;52.622;13.296;2024-02-23T16:19:16;7.10;60.20
16313;DHT22;8265;52.622;13.296;2024-02-23T16:24:37;7.10;60.00
16313;DHT22;8265;52.622;13.296;2024-02-23T16:29:58;7.00;60.00
16313;DHT22;8265;52.622;13.296;2024-02-23T16:35:19;6.80;61.40
16313;DHT22;8265;52.622;13.296;2024-02-23T16:40:40;6.80;61.20
16313;DHT22;8265;52.622;13.296;2024-02-23T16:46:01;6.70;61.40
16313;DHT22;8265;52.622;13.296;2024-02-23T16:51:22;6.60;62.30
16313;DHT22;8265;52.622;13.296;2024-02-23T16:56:43;6.50;63.00
16313;DHT22;8265;52.622;13.296;2024-02-23T17:02:04;6.40;63.10
16313;DHT22;8265;52.622;13.296;2024-02-23T17:07:25;6.30;63.80
16313;DHT22;8265;52.622;13.296;2024-02-23T17:12:45;6.20;63.80
16313;DHT22;8265;52.622;13.296;2024-02-23T17:18:06;6.20;64.70
16313;DHT22;8265;52.622;13.296;2024-02-23T17:23:27;6.20;64.30
16313;DHT22;8265;52.622;13.296;2024-02-23T17:28:48;6.10;64.70
16313;DHT22;8265;52.622;13.296;2024-02-23T17:34:10;6.20;64.60
16313;DHT22;8265;52.622;13.296;2024-02-23T17:39:30;6.00;65.20
16313;DHT22;8265;52.622;13.296;2024-02-23T17:44:52;6.10;65.30
16313;DHT22;8265;52.622;13.296;2024-02-23T17:50:13;5.90;65.40
16313;DHT22;8265;52.622;13.296;2024-02-23T17:55:34;5.90;65.40
16313;DHT22;8265;52.622;13.296;2024-02-23T18:00:54;5.90;65.70
16313;DHT22;8265;52.622;13.296;2024-02-23T18:06:16;5.80;66.00
16313;DHT22;8265;52.622;13.296;2024-02-23T18:11:36;5.90;65.40
16313;DHT22;8265;52.622;13.296;2024-02-23T18:16:57;5.70;67.30
16313;DHT22;8265;52.622;13.296;2024-02-23T18:22:18;5.50;67.80
16313;DHT22;8265;52.622;13.296;2024-02-23T18:27:40;5.70;67.90
16313;DHT22;8265;52.622;13.296;2024-02-23T18:33:00;5.80;67.40
16313;DHT22;8265;52.622;13.296;2024-02-23T18:38:22;5.50;68.70
16313;DHT22;8265;52.622;13.296;2024-02-23T18:43:42;5.70;67.90
16313;DHT22;8265;52.622;13.296;2024-02-23T18:49:04;5.60;69.00
16313;DHT22;8265;52.622;13.296;2024-02-23T18:54:25;5.70;67.60
16313;DHT22;8265;52.622;13.296;2024-02-23T18:59:45;5.60;68.20
16313;DHT22;8265;52.622;13.296;2024-02-23T19:05:07;5.50;69.40
16313;DHT22;8265;52.622;13.296;2024-02-23T19:10:27;5.30;70.70
16313;DHT22;8265;52.622;13.296;2024-02-23T19:15:48;5.30;69.70
16313;DHT22;8265;52.622;13.296;2024-02-23T19:21:09;5.40;69.20
16313;DHT22;8265;52.622;13.296;2024-02-23T19:26:30;5.30;69.70
16313;DHT22;8265;52.622;13.296;2024-02-23T19:31:51;5.30;69.80
16313;DHT22;8265;52.622;13.296;2024-02-23T19:37:12;5.50;69.90
16313;DHT22;8265;52.622;13.296;2024-02-23T19:42:33;5.40;69.80
16313;DHT22;8265;52.622;13.296;2024-02-23T19:47:54;5.50;70.80
16313;DHT22;8265;52.622;13.296;2024-02-23T19:53:15;5.60;68.70
16313;DHT22;8265;52.622;13.296;2024-02-23T19:58:36;5.20;70.50
16313;DHT22;8265;52.622;13.296;2024-02-23T20:03:57;5.10;70.80
16313;DHT22;8265;52.622;13.296;2024-02-23T20:09:18;5.00;70.60
16313;DHT22;8265;52.622;13.296;2024-02-23T20:14:40;5.00;70.60
16313;DHT22;8265;52.622;13.296;2024-02-23T20:20:00;5.00;71.20
16313;DHT22;8265;52.622;13.296;2024-02-23T20:25:21;5.00;71.30
16313;DHT22;8265;52.622;13.296;2024-02-23T20:30:42;5.00;71.30
16313;DHT22;8265;52.622;13.296;2024-02-23T20:36:03;5.10;71.20
16313;DHT22;8265;52.622;13.296;2024-02-23T20:41:24;4.90;71.70
16313;DHT22;8265;52.622;13.296;2024-02-23T20:46:45;4.90;71.60
16313;DHT22;8265;52.622;13.296;2024-02-23T20:52:09;4.70;72.10
16313;DHT22;8265;52.622;13.296;2024-02-23T20:57:27;4.60;72.00
16313;DHT22;8265;52.622;13.296;2024-02-23T21:02:48;4.70;71.80
16313;DHT22;8265;52.622;13.296;2024-02-23T21:08:09;4.90;71.90
16313;DHT22;8265;52.622;13.296;2024-02-23T21:13:30;4.70;71.20
16313;DHT22;8265;52.622;13.296;2024-02-23T21:18:51;4.70;72.40
16313;DHT22;8265;52.622;13.296;2024-02-23T21:24:12;4.90;71.40
16313;DHT22;8265;52.622;13.296;2024-02-23T21:29:33;4.80;72.00
16313;DHT22;8265;52.622;13.296;2024-02-23T21:34:58;4.90;71.40
16313;DHT22;8265;52.622;13.296;2024-02-23T21:40:15;4.50;72.20
16313;DHT22;8265;52.622;13.296;2024-02-23T21:45:36;4.60;73.00
16313;DHT22;8265;52.622;13.296;2024-02-23T21:50:57;4.60;71.50
16313;DHT22;8265;52.622;13.296;2024-02-23T21:56:18;5.00;71.90
16313;DHT22;8265;52.622;13.296;2024-02-23T22:01:39;4.80;71.40
16313;DHT22;8265;52.622;13.296;2024-02-23T22:07:00;4.60;73.90
16313;DHT22;8265;52.622;13.296;2024-02-23T22:12:22;4.50;72.50
16313;DHT22;8265;52.622;13.296;2024-02-23T22:17:42;4.40;75.40
16313;DHT22;8265;52.622;13.296;2024-02-23T22:23:03;4.70;73.60
16313;DHT22;8265;52.622;13.296;2024-02-23T22:28:24;4.40;74.20
16313;DHT22;8265;52.622;13.296;2024-02-23T22:33:45;4.60;75.70
16313;DHT22;8265;52.622;13.296;2024-02-23T22:39:06;4.90;72.20
16313;DHT22;8265;52.622;13.296;2024-02-23T22:44:27;4.50;72.70
16313;DHT22;8265;52.622;13.296;2024-02-23T22:49:48;5.00;73.00
16313;DHT22;8265;52.622;13.296;2024-02-23T22:55:09;5.40;71.80
16313;DHT22;8265;52.622;13.296;2024-02-23T23:00:30;5.10;72.70
16313;DHT22;8265;52.622;13.296;2024-02-23T23:05:51;4.60;73.70
16313;DHT22;8265;52.622;13.296;2024-02-23T23:11:12;4.90;72.90
16313;DHT22;8265;52.622;13.296;2024-02-23T23:16:33;4.70;74.20
16313;DHT22;8265;52.622;13.296;2024-02-23T23:21:54;4.30;74.90
16313;DHT22;8265;52.622;13.296;2024-02-23T23:27:15;3.70;75.80
16313;DHT22;8265;52.622;13.296;2024-02-23T23:32:36;3.70;75.30
16313;DHT22;8265;52.622;13.296;2024-02-23T23:37:57;4.10;75.20
16313;DHT22;8265;52.622;13.296;2024-02-23T23:43:18;4.50;75.20
16313;DHT22;8265;52.622;13.296;2024-02-23T23:48:39;4.70;73.80
16313;DHT22;8265;52.622;13.296;2024-02-23T23:54:00;4.70;72.70
16313;DHT22;8265;52.622;13.296;2024-02-23T23:59:21;5.10;73.50
